sensor_id;sensor_type;location;lat;lon;timestamp;temperature;humidity
16871;DHT22;8552;48.120;-1.456;2023-03-01T11:40:59;6.20;99.90
16871;DHT22;8552;48.120;-1.456;2023-03-01T11:49:18;5.90;99.90
16871;DHT22;8552;48.120;-1.456;2023-03-01T12:08:28;6.30;99.90
16871;DHT22;8552;48.120;-1.456;2023-03-01T12:25:22;6.80;99.10
16871;DHT22;8552;48.120;-1.456;2023-03-01T12:30:20;6.80;98.70
16871;DHT22;8552;48.120;-1.456;2023-03-01T12:38:41;7.30;99.30
16871;DHT22;8552;48.120;-1.456;2023-03-01T12:41:19;7.20;98.00
16871;DHT22;8552;48.120;-1.456;2023-03-01T12:44:28;7.30;99.10
16871;DHT22;8552;48.120;-1.456;2023-03-01T12:49:38;7.50;97.60
16871;DHT22;8552;48.120;-1.456;2023-03-01T12:52:23;7.30;96.50
16871;DHT22;8552;48.120;-1.456;2023-03-01T12:54:55;7.40;96.40
16871;DHT22;8552;48.120;-1.456;2023-03-01T12:57:30;7.20;97.30
16871;DHT22;8552;48.120;-1.456;2023-03-01T13:00:06;7.40;96.10
16871;DHT22;8552;48.120;-1.456;2023-03-01T13:02:45;7.60;97.90
16871;DHT22;8552;48.120;-1.456;2023-03-01T13:08:23;7.70;96.80
16871;DHT22;8552;48.120;-1.456;2023-03-01T13:11:00;7.40;95.20
16871;DHT22;8552;48.120;-1.456;2023-03-01T13:13:27;7.30;95.50
16871;DHT22;8552;48.120;-1.456;2023-03-01T13:15:54;7.60;95.60
16871;DHT22;8552;48.120;-1.456;2023-03-01T13:20:59;7.50;94.80
16871;DHT22;8552;48.120;-1.456;2023-03-01T13:23:31;7.70;96.40
16871;DHT22;8552;48.120;-1.456;2023-03-01T13:26:13;7.30;95.00
16871;DHT22;8552;48.120;-1.456;2023-03-01T13:33:47;7.70;94.60
16871;DHT22;8552;48.120;-1.456;2023-03-01T13:46:48;7.90;94.40
16871;DHT22;8552;48.120;-1.456;2023-03-01T13:49:19;8.00;95.00
16871;DHT22;8552;48.120;-1.456;2023-03-01T13:51:47;7.80;93.00
16871;DHT22;8552;48.120;-1.456;2023-03-01T13:54:15;8.00;93.50
16871;DHT22;8552;48.120;-1.456;2023-03-01T13:56:42;7.90;92.80
16871;DHT22;8552;48.120;-1.456;2023-03-01T13:59:20;8.00;92.60
16871;DHT22;8552;48.120;-1.456;2023-03-01T14:01:58;8.30;94.50
16871;DHT22;8552;48.120;-1.456;2023-03-01T14:07:21;8.40;93.40
16871;DHT22;8552;48.120;-1.456;2023-03-01T14:09:52;8.30;92.20
16871;DHT22;8552;48.120;-1.456;2023-03-01T14:12:44;7.90;92.60
16871;DHT22;8552;48.120;-1.456;2023-03-01T14:18:25;7.90;92.10
16871;DHT22;8552;48.120;-1.456;2023-03-01T14:20:55;8.10;93.30
16871;DHT22;8552;48.120;-1.456;2023-03-01T14:23:22;7.80;92.50
16871;DHT22;8552;48.120;-1.456;2023-03-01T14:25:57;8.00;92.70
16871;DHT22;8552;48.120;-1.456;2023-03-01T14:28:28;8.10;93.70
16871;DHT22;8552;48.120;-1.456;2023-03-01T14:30:58;8.00;91.90
16871;DHT22;8552;48.120;-1.456;2023-03-01T14:33:32;8.20;92.10
16871;DHT22;8552;48.120;-1.456;2023-03-01T14:36:07;8.10;92.50
16871;DHT22;8552;48.120;-1.456;2023-03-01T14:41:17;8.10;93.00
16871;DHT22;8552;48.120;-1.456;2023-03-01T14:43:59;7.90;92.10
16871;DHT22;8552;48.120;-1.456;2023-03-01T14:46:38;8.20;92.50
16871;DHT22;8552;48.120;-1.456;2023-03-01T14:49:17;8.30;92.40
16871;DHT22;8552;48.120;-1.456;2023-03-01T14:52:06;7.90;91.70
16871;DHT22;8552;48.120;-1.456;2023-03-01T14:57:05;8.20;91.90
16871;DHT22;8552;48.120;-1.456;2023-03-01T14:59:33;7.90;91.50
16871;DHT22;8552;48.120;-1.456;2023-03-01T15:02:00;8.20;93.80
16871;DHT22;8552;48.120;-1.456;2023-03-01T15:04:27;8.10;93.40
16871;DHT22;8552;48.120;-1.456;2023-03-01T15:06:55;8.00;92.50
16871;DHT22;8552;48.120;-1.456;2023-03-01T15:09:22;8.00;92.10
16871;DHT22;8552;48.120;-1.456;2023-03-01T15:11:50;7.80;92.10
16871;DHT22;8552;48.120;-1.456;2023-03-01T15:14:39;7.60;93.00
16871;DHT22;8552;48.120;-1.456;2023-03-01T15:17:32;7.70;93.30
16871;DHT22;8552;48.120;-1.456;2023-03-01T15:20:22;7.60;93.50
16871;DHT22;8552;48.120;-1.456;2023-03-01T15:22:47;7.90;95.20
16871;DHT22;8552;48.120;-1.456;2023-03-01T15:25:24;8.20;95.70
16871;DHT22;8552;48.120;-1.456;2023-03-01T15:27:52;8.20;94.20
16871;DHT22;8552;48.120;-1.456;2023-03-01T15:30:33;7.90;94.50
16871;DHT22;8552;48.120;-1.456;2023-03-01T15:35:55;8.00;95.00
16871;DHT22;8552;48.120;-1.456;2023-03-01T15:38:52;7.90;95.30
16871;DHT22;8552;48.120;-1.456;2023-03-01T15:41:31;7.90;95.40
16871;DHT22;8552;48.120;-1.456;2023-03-01T15:44:15;7.90;96.20
16871;DHT22;8552;48.120;-1.456;2023-03-01T15:46:46;8.00;96.20
16871;DHT22;8552;48.120;-1.456;2023-03-01T15:52:03;7.90;96.70
16871;DHT22;8552;48.120;-1.456;2023-03-01T15:54:29;7.80;96.70
16871;DHT22;8552;48.120;-1.456;2023-03-01T15:56:55;7.90;96.80
16871;DHT22;8552;48.120;-1.456;2023-03-01T15:59:21;8.00;97.40
16871;DHT22;8552;48.120;-1.456;2023-03-01T16:01:47;8.10;97.50
16871;DHT22;8552;48.120;-1.456;2023-03-01T16:04:15;7.80;96.90
16871;DHT22;8552;48.120;-1.456;2023-03-01T16:06:53;7.80;96.90
16871;DHT22;8552;48.120;-1.456;2023-03-01T16:09:23;7.50;95.80
16871;DHT22;8552;48.120;-1.456;2023-03-01T16:11:50;7.60;97.30
16871;DHT22;8552;48.120;-1.456;2023-03-01T16:14:16;7.50;97.10
16871;DHT22;8552;48.120;-1.456;2023-03-01T16:16:43;7.60;97.80
16871;DHT22;8552;48.120;-1.456;2023-03-01T16:19:09;7.60;97.10
16871;DHT22;8552;48.120;-1.456;2023-03-01T16:21:35;7.40;96.70
16871;DHT22;8552;48.120;-1.456;2023-03-01T16:24:01;7.50;98.00
16871;DHT22;8552;48.120;-1.456;2023-03-01T16:26:27;7.40;97.50
16871;DHT22;8552;48.120;-1.456;2023-03-01T16:28:56;7.20;97.90
16871;DHT22;8552;48.120;-1.456;2023-03-01T16:31:23;7.20;98.30
16871;DHT22;8552;48.120;-1.456;2023-03-01T16:33:53;7.30;99.00
16871;DHT22;8552;48.120;-1.456;2023-03-01T16:36:20;7.30;99.30
16871;DHT22;8552;48.120;-1.456;2023-03-01T16:38:46;7.30;99.40
16871;DHT22;8552;48.120;-1.456;2023-03-01T16:41:14;7.30;99.90
16871;DHT22;8552;48.120;-1.456;2023-03-01T16:43:40;7.20;99.90
16871;DHT22;8552;48.120;-1.456;2023-03-01T16:46:14;7.00;99.10
16871;DHT22;8552;48.120;-1.456;2023-03-01T16:48:40;6.90;99.90
16871;DHT22;8552;48.120;-1.456;2023-03-01T16:51:06;6.80;99.20
16871;DHT22;8552;48.120;-1.456;2023-03-01T16:53:33;6.70;99.90
16871;DHT22;8552;48.120;-1.456;2023-03-01T16:56:02;6.80;99.90
16871;DHT22;8552;48.120;-1.456;2023-03-01T16:58:28;6.60;98.90
16871;DHT22;8552;48.120;-1.456;2023-03-01T17:00:54;6.50;99.40
16871;DHT22;8552;48.120;-1.456;2023-03-01T17:03:22;6.50;98.60
16871;DHT22;8552;48.120;-1.456;2023-03-01T17:05:49;6.30;98.10
16871;DHT22;8552;48.120;-1.456;2023-03-01T17:08:15;6.20;97.20
16871;DHT22;8552;48.120;-1.456;2023-03-01T17:10:41;6.20;97.50
16871;DHT22;8552;48.120;-1.456;2023-03-01T17:13:10;6.10;97.50
16871;DHT22;8552;48.120;-1.456;2023-03-01T17:15:42;6.10;98.00
16871;DHT22;8552;48.120;-1.456;2023-03-01T17:18:08;6.00;98.50
16871;DHT22;8552;48.120;-1.456;2023-03-01T17:20:35;6.00;99.30
16871;DHT22;8552;48.120;-1.456;2023-03-01T17:23:01;5.90;99.50
16871;DHT22;8552;48.120;-1.456;2023-03-01T17:25:27;5.80;99.80
16871;DHT22;8552;48.120;-1.456;2023-03-01T17:27:53;5.70;99.90
16871;DHT22;8552;48.120;-1.456;2023-03-01T17:30:19;5.70;99.90
16871;DHT22;8552;48.120;-1.456;2023-03-01T17:32:45;5.60;99.90
16871;DHT22;8552;48.120;-1.456;2023-03-01T17:35:10;5.60;99.90
16871;DHT22;8552;48.120;-1.456;2023-03-01T17:37:37;5.50;99.90
16871;DHT22;8552;48.120;-1.456;2023-03-01T17:40:05;5.50;99.90
16871;DHT22;8552;48.120;-1.456;2023-03-01T17:42:31;5.40;99.90
16871;DHT22;8552;48.120;-1.456;2023-03-01T17:44:57;5.40;99.90
16871;DHT22;8552;48.120;-1.456;2023-03-01T17:47:23;5.30;99.90
16871;DHT22;8552;48.120;-1.456;2023-03-01T17:49:49;5.20;99.90
16871;DHT22;8552;48.120;-1.456;2023-03-01T17:52:14;5.20;99.90
16871;DHT22;8552;48.120;-1.456;2023-03-01T17:54:40;5.10;99.90
16871;DHT22;8552;48.120;-1.456;2023-03-01T17:57:06;5.10;99.90
16871;DHT22;8552;48.120;-1.456;2023-03-01T17:59:35;5.00;99.90
16871;DHT22;8552;48.120;-1.456;2023-03-01T18:02:01;4.90;99.90
16871;DHT22;8552;48.120;-1.456;2023-03-01T18:04:27;4.90;99.90
16871;DHT22;8552;48.120;-1.456;2023-03-01T18:06:53;4.80;99.90
16871;DHT22;8552;48.120;-1.456;2023-03-01T18:09:19;4.70;99.90
16871;DHT22;8552;48.120;-1.456;2023-03-01T18:11:44;4.70;99.90
16871;DHT22;8552;48.120;-1.456;2023-03-01T18:14:10;4.60;99.90
16871;DHT22;8552;48.120;-1.456;2023-03-01T18:16:36;4.60;99.90
16871;DHT22;8552;48.120;-1.456;2023-03-01T18:19:04;4.50;99.90
16871;DHT22;8552;48.120;-1.456;2023-03-01T18:21:32;4.50;99.90
16871;DHT22;8552;48.120;-1.456;2023-03-01T18:23:58;4.50;99.90
16871;DHT22;8552;48.120;-1.456;2023-03-01T18:26:26;4.40;99.90
16871;DHT22;8552;48.120;-1.456;2023-03-01T18:28:54;4.30;99.90
16871;DHT22;8552;48.120;-1.456;2023-03-01T18:31:23;4.30;99.90
16871;DHT22;8552;48.120;-1.456;2023-03-01T18:33:52;4.30;99.90
16871;DHT22;8552;48.120;-1.456;2023-03-01T18:36:22;4.20;99.90
16871;DHT22;8552;48.120;-1.456;2023-03-01T18:38:48;4.20;99.90
16871;DHT22;8552;48.120;-1.456;2023-03-01T18:41:14;4.10;99.90
16871;DHT22;8552;48.120;-1.456;2023-03-01T18:43:40;4.10;99.90
16871;DHT22;8552;48.120;-1.456;2023-03-01T18:46:06;4.10;99.90
16871;DHT22;8552;48.120;-1.456;2023-03-01T18:48:32;4.00;99.90
16871;DHT22;8552;48.120;-1.456;2023-03-01T18:51:25;4.00;99.90
16871;DHT22;8552;48.120;-1.456;2023-03-01T18:53:51;4.00;99.90
16871;DHT22;8552;48.120;-1.456;2023-03-01T18:56:17;4.00;99.90
16871;DHT22;8552;48.120;-1.456;2023-03-01T18:58:43;3.90;99.90
16871;DHT22;8552;48.120;-1.456;2023-03-01T19:01:14;3.90;99.90
16871;DHT22;8552;48.120;-1.456;2023-03-01T19:03:40;3.80;99.90
16871;DHT22;8552;48.120;-1.456;2023-03-01T19:06:06;3.80;99.90
16871;DHT22;8552;48.120;-1.456;2023-03-01T19:08:31;3.80;99.90
16871;DHT22;8552;48.120;-1.456;2023-03-01T19:10:59;3.80;99.90
16871;DHT22;8552;48.120;-1.456;2023-03-01T19:13:25;3.70;99.90
16871;DHT22;8552;48.120;-1.456;2023-03-01T19:15:51;3.70;99.90
16871;DHT22;8552;48.120;-1.456;2023-03-01T19:18:17;3.60;99.90
16871;DHT22;8552;48.120;-1.456;2023-03-01T19:20:43;3.60;99.90
16871;DHT22;8552;48.120;-1.456;2023-03-01T19:23:09;3.60;99.90
16871;DHT22;8552;48.120;-1.456;2023-03-01T19:25:34;3.50;99.90
16871;DHT22;8552;48.120;-1.456;2023-03-01T19:28:00;3.50;99.90
16871;DHT22;8552;48.120;-1.456;2023-03-01T19:30:26;3.50;99.90
16871;DHT22;8552;48.120;-1.456;2023-03-01T19:32:52;3.40;99.90
16871;DHT22;8552;48.120;-1.456;2023-03-01T19:35:18;3.40;99.90
16871;DHT22;8552;48.120;-1.456;2023-03-01T19:37:44;3.40;99.90
16871;DHT22;8552;48.120;-1.456;2023-03-01T19:40:10;3.40;99.90
16871;DHT22;8552;48.120;-1.456;2023-03-01T19:42:36;3.30;99.90
16871;DHT22;8552;48.120;-1.456;2023-03-01T19:45:01;3.40;99.90
16871;DHT22;8552;48.120;-1.456;2023-03-01T19:47:27;3.30;99.90
16871;DHT22;8552;48.120;-1.456;2023-03-01T19:49:53;3.30;99.90
16871;DHT22;8552;48.120;-1.456;2023-03-01T19:52:19;3.30;99.90
16871;DHT22;8552;48.120;-1.456;2023-03-01T19:54:44;3.20;99.90
16871;DHT22;8552;48.120;-1.456;2023-03-01T19:57:12;3.20;99.90
16871;DHT22;8552;48.120;-1.456;2023-03-01T19:59:38;3.20;99.90
16871;DHT22;8552;48.120;-1.456;2023-03-01T20:02:03;3.10;99.90
16871;DHT22;8552;48.120;-1.456;2023-03-01T20:04:29;3.10;99.90
16871;DHT22;8552;48.120;-1.456;2023-03-01T20:06:55;3.10;99.90
16871;DHT22;8552;48.120;-1.456;2023-03-01T20:09:20;3.10;99.90
16871;DHT22;8552;48.120;-1.456;2023-03-01T20:11:46;3.10;99.90
16871;DHT22;8552;48.120;-1.456;2023-03-01T20:14:12;3.00;99.90
16871;DHT22;8552;48.120;-1.456;2023-03-01T20:16:38;3.00;99.90
16871;DHT22;8552;48.120;-1.456;2023-03-01T20:19:04;3.00;99.90
16871;DHT22;8552;48.120;-1.456;2023-03-01T20:21:30;2.90;99.90
16871;DHT22;8552;48.120;-1.456;2023-03-01T20:23:58;2.90;99.90
16871;DHT22;8552;48.120;-1.456;2023-03-01T20:26:24;2.90;99.90
16871;DHT22;8552;48.120;-1.456;2023-03-01T20:28:52;2.90;99.90
16871;DHT22;8552;48.120;-1.456;2023-03-01T20:31:20;2.80;99.90
16871;DHT22;8552;48.120;-1.456;2023-03-01T20:33:47;2.80;99.90
16871;DHT22;8552;48.120;-1.456;2023-03-01T20:36:13;2.80;99.90
16871;DHT22;8552;48.120;-1.456;2023-03-01T20:38:42;2.70;99.90
16871;DHT22;8552;48.120;-1.456;2023-03-01T20:41:12;2.70;99.90
16871;DHT22;8552;48.120;-1.456;2023-03-01T20:43:40;2.60;99.90
16871;DHT22;8552;48.120;-1.456;2023-03-01T20:46:10;2.60;99.90
16871;DHT22;8552;48.120;-1.456;2023-03-01T20:48:36;2.50;99.90
16871;DHT22;8552;48.120;-1.456;2023-03-01T20:51:08;2.40;99.90
16871;DHT22;8552;48.120;-1.456;2023-03-01T20:53:34;2.30;99.90
16871;DHT22;8552;48.120;-1.456;2023-03-01T20:56:06;2.20;99.90
16871;DHT22;8552;48.120;-1.456;2023-03-01T20:58:33;2.10;99.90
16871;DHT22;8552;48.120;-1.456;2023-03-01T21:01:00;2.10;99.90
16871;DHT22;8552;48.120;-1.456;2023-03-01T21:03:26;2.00;99.90
16871;DHT22;8552;48.120;-1.456;2023-03-01T21:05:56;1.90;99.90
16871;DHT22;8552;48.120;-1.456;2023-03-01T21:08:23;1.90;99.90
16871;DHT22;8552;48.120;-1.456;2023-03-01T21:10:53;1.80;99.90
16871;DHT22;8552;48.120;-1.456;2023-03-01T21:13:19;1.70;99.90
16871;DHT22;8552;48.120;-1.456;2023-03-01T21:15:55;1.70;99.90
16871;DHT22;8552;48.120;-1.456;2023-03-01T21:18:21;1.60;99.90
16871;DHT22;8552;48.120;-1.456;2023-03-01T21:20:48;1.60;99.90
16871;DHT22;8552;48.120;-1.456;2023-03-01T21:23:14;1.50;99.90
16871;DHT22;8552;48.120;-1.456;2023-03-01T21:25:40;1.40;99.90
16871;DHT22;8552;48.120;-1.456;2023-03-01T21:28:05;1.30;99.90
16871;DHT22;8552;48.120;-1.456;2023-03-01T21:30:31;1.20;99.90
16871;DHT22;8552;48.120;-1.456;2023-03-01T21:32:57;1.10;99.90
16871;DHT22;8552;48.120;-1.456;2023-03-01T21:35:22;1.00;99.90
16871;DHT22;8552;48.120;-1.456;2023-03-01T21:37:48;0.90;99.90
16871;DHT22;8552;48.120;-1.456;2023-03-01T21:40:14;0.70;99.90
16871;DHT22;8552;48.120;-1.456;2023-03-01T21:42:40;0.70;99.90
16871;DHT22;8552;48.120;-1.456;2023-03-01T21:45:09;0.70;99.90
16871;DHT22;8552;48.120;-1.456;2023-03-01T21:47:35;0.60;99.90
16871;DHT22;8552;48.120;-1.456;2023-03-01T21:50:00;0.60;99.90
16871;DHT22;8552;48.120;-1.456;2023-03-01T21:52:26;0.50;99.90
16871;DHT22;8552;48.120;-1.456;2023-03-01T21:54:52;0.50;99.90
16871;DHT22;8552;48.120;-1.456;2023-03-01T21:57:19;0.40;99.90
16871;DHT22;8552;48.120;-1.456;2023-03-01T21:59:45;0.30;99.90
16871;DHT22;8552;48.120;-1.456;2023-03-01T22:02:12;0.30;99.90
16871;DHT22;8552;48.120;-1.456;2023-03-01T22:04:39;0.20;99.90
16871;DHT22;8552;48.120;-1.456;2023-03-01T22:07:05;0.20;99.90
16871;DHT22;8552;48.120;-1.456;2023-03-01T22:09:31;0.10;99.90
16871;DHT22;8552;48.120;-1.456;2023-03-01T22:11:59;0.10;99.90
16871;DHT22;8552;48.120;-1.456;2023-03-01T22:14:29;0.00;99.90
16871;DHT22;8552;48.120;-1.456;2023-03-01T22:16:56;0.00;99.90
16871;DHT22;8552;48.120;-1.456;2023-03-01T22:19:22;-0.10;99.90
16871;DHT22;8552;48.120;-1.456;2023-03-01T22:21:49;-0.10;99.90
16871;DHT22;8552;48.120;-1.456;2023-03-01T22:24:21;-0.20;99.90
16871;DHT22;8552;48.120;-1.456;2023-03-01T22:26:49;-0.10;99.90
16871;DHT22;8552;48.120;-1.456;2023-03-01T22:29:21;-0.20;99.90
16871;DHT22;8552;48.120;-1.456;2023-03-01T22:31:48;-0.20;99.90
16871;DHT22;8552;48.120;-1.456;2023-03-01T22:34:15;-0.20;99.90
16871;DHT22;8552;48.120;-1.456;2023-03-01T22:36:41;-0.30;99.90
16871;DHT22;8552;48.120;-1.456;2023-03-01T22:39:07;-0.40;99.90
16871;DHT22;8552;48.120;-1.456;2023-03-01T22:41:40;-0.40;99.90
16871;DHT22;8552;48.120;-1.456;2023-03-01T22:44:09;-0.40;99.90
16871;DHT22;8552;48.120;-1.456;2023-03-01T22:46:35;-0.50;99.90
16871;DHT22;8552;48.120;-1.456;2023-03-01T22:49:01;-0.60;99.90
16871;DHT22;8552;48.120;-1.456;2023-03-01T22:51:29;-0.60;99.90
16871;DHT22;8552;48.120;-1.456;2023-03-01T22:53:55;-0.70;99.90
16871;DHT22;8552;48.120;-1.456;2023-03-01T22:56:24;-0.70;99.90
16871;DHT22;8552;48.120;-1.456;2023-03-01T22:58:50;-0.90;99.90
16871;DHT22;8552;48.120;-1.456;2023-03-01T23:01:18;-0.90;99.90
16871;DHT22;8552;48.120;-1.456;2023-03-01T23:03:44;-1.00;99.90
16871;DHT22;8552;48.120;-1.456;2023-03-01T23:06:10;-1.00;99.90
16871;DHT22;8552;48.120;-1.456;2023-03-01T23:08:36;-1.10;99.90
16871;DHT22;8552;48.120;-1.456;2023-03-01T23:11:03;-1.10;99.90
16871;DHT22;8552;48.120;-1.456;2023-03-01T23:13:33;-1.10;99.90
16871;DHT22;8552;48.120;-1.456;2023-03-01T23:15:59;-1.10;99.90
16871;DHT22;8552;48.120;-1.456;2023-03-01T23:18:24;-1.10;99.90
16871;DHT22;8552;48.120;-1.456;2023-03-01T23:20:50;-1.20;99.90
16871;DHT22;8552;48.120;-1.456;2023-03-01T23:23:16;-1.20;99.90
16871;DHT22;8552;48.120;-1.456;2023-03-01T23:25:51;-1.20;99.90
16871;DHT22;8552;48.120;-1.456;2023-03-01T23:28:17;-1.20;99.90
16871;DHT22;8552;48.120;-1.456;2023-03-01T23:30:53;-1.20;99.90
16871;DHT22;8552;48.120;-1.456;2023-03-01T23:33:19;-1.30;99.90
16871;DHT22;8552;48.120;-1.456;2023-03-01T23:35:45;-1.30;99.90
16871;DHT22;8552;48.120;-1.456;2023-03-01T23:38:11;-1.40;99.90
16871;DHT22;8552;48.120;-1.456;2023-03-01T23:40:39;-1.40;99.90
16871;DHT22;8552;48.120;-1.456;2023-03-01T23:43:05;-1.40;99.90
16871;DHT22;8552;48.120;-1.456;2023-03-01T23:45:31;-1.50;99.90
16871;DHT22;8552;48.120;-1.456;2023-03-01T23:47:56;-1.50;99.90
16871;DHT22;8552;48.120;-1.456;2023-03-01T23:50:22;-1.60;99.90
16871;DHT22;8552;48.120;-1.456;2023-03-01T23:52:48;-1.60;99.90
16871;DHT22;8552;48.120;-1.456;2023-03-01T23:55:14;-1.70;99.90
16871;DHT22;8552;48.120;-1.456;2023-03-01T23:57:41;-1.70;99.90
